Time;durP1;ratioP1;P1;durP2;ratioP2;P2;SDS_P1;SDS_P2;PMS_P1;PMS_P2;Temp;Humidity;BMP_temperature;BMP_pressure;BME280_temperature;BME280_humidity;BME280_pressure;Samples;Min_cycle;Max_cycle;Signal;HPM_P1;HPM_P2
2021/09/30 00:01:54;;;;;;;71.00;45.98;;;;;;;12.75;100.00;99602.45;4148890;83;21042;-83
2021/09/30 00:07:56;;;;;;;67.67;43.78;;;;;;;12.73;100.00;99604.20;4153590;85;21094;-83
2021/09/30 00:14:21;;;;;;;69.62;44.18;;;;;;;12.82;100.00;99593.70;4154012;85;21067;-84
2021/09/30 00:33:03;;;;;;;69.80;43.48;;;;;;;12.88;100.00;99603.19;4106066;85;21606;-84
2021/09/30 02:22:14;;;;;;;47.83;33.63;;;;;;;13.28;100.00;99649.22;4141516;85;21702;-84
2021/09/30 02:59:38;;;;;;;42.55;30.20;;;;;;;13.28;100.00;99662.36;4071150;85;21165;-82
2021/09/30 03:05:41;;;;;;;41.53;30.05;;;;;;;13.24;100.00;99679.98;4110815;85;21082;-82
2021/09/30 03:11:49;;;;;;;45.45;28.42;;;;;;;13.25;100.00;99677.46;4081521;85;21057;-82
2021/09/30 03:17:54;;;;;;;39.33;28.17;;;;;;;13.30;100.00;99682.03;4090445;85;21173;-82
2021/09/30 03:23:56;;;;;;;40.12;27.85;;;;;;;13.33;100.00;99675.77;4118602;85;21096;-82
2021/09/30 03:29:58;;;;;;;40.40;28.98;;;;;;;13.33;100.00;99685.39;4106827;85;21084;-82
2021/09/30 03:36:00;;;;;;;39.15;27.13;;;;;;;13.39;100.00;99690.76;4103611;85;21053;-81
2021/09/30 03:42:04;;;;;;;39.27;27.95;;;;;;;13.39;100.00;99694.11;4135511;84;21067;-82
2021/09/30 03:48:08;;;;;;;38.10;27.15;;;;;;;13.39;100.00;99695.48;4123699;83;21125;-81
2021/09/30 04:00:30;;;;;;;37.95;27.82;;;;;;;13.42;100.00;99704.36;4121686;84;21047;-82
2021/09/30 04:06:32;;;;;;;37.65;27.10;;;;;;;13.44;100.00;99722.05;4122468;85;21657;-82
2021/09/30 04:12:33;;;;;;;40.92;27.98;;;;;;;13.46;100.00;99731.30;4129240;85;21564;-82
2021/09/30 04:18:36;;;;;;;41.65;27.42;;;;;;;13.42;100.00;99738.13;3957171;87;21082;-82
2021/09/30 04:24:40;;;;;;;34.70;26.27;;;;;;;13.42;100.00;99734.00;4123248;85;21137;-83
2021/09/30 04:30:43;;;;;;;38.02;27.82;;;;;;;13.41;100.00;99741.26;4135599;84;21070;-82
2021/09/30 04:36:59;;;;;;;38.98;26.10;;;;;;;13.41;100.00;99735.76;4033385;86;21095;-82
2021/09/30 04:43:01;;;;;;;40.98;28.70;;;;;;;13.44;100.00;99729.50;4037023;87;21055;-83
2021/09/30 04:49:03;;;;;;;41.70;28.70;;;;;;;13.38;100.00;99740.06;4101638;85;21479;-81
2021/09/30 04:55:06;;;;;;;49.53;31.70;;;;;;;13.32;100.00;99753.94;4083331;84;21069;-82
2021/09/30 05:01:07;;;;;;;45.83;29.70;;;;;;;13.36;100.00;99753.99;4089034;84;21078;-82
2021/09/30 05:07:10;;;;;;;46.13;32.60;;;;;;;13.44;100.00;99763.31;4122602;85;21081;-81
2021/09/30 05:13:35;;;;;;;48.08;30.27;;;;;;;13.43;100.00;99765.86;4133923;85;21105;-82
2021/09/30 05:19:27;;;;;;;44.40;29.90;;;;;;;13.46;100.00;99776.11;4132365;85;21035;-82
2021/09/30 05:25:29;;;;;;;62.93;39.08;;;;;;;13.48;100.00;99780.66;4136387;84;22294;-82
2021/09/30 05:31:31;;;;;;;53.00;33.90;;;;;;;13.52;100.00;99791.69;4131582;84;21595;-82
2021/09/30 05:37:35;;;;;;;59.15;36.50;;;;;;;13.53;100.00;99798.79;4126525;84;21102;-82
2021/09/30 05:43:39;;;;;;;58.92;38.48;;;;;;;13.54;100.00;99808.61;4120071;84;21044;-81
2021/09/30 05:49:41;;;;;;;54.42;36.65;;;;;;;13.58;100.00;99819.86;4130348;83;21058;-81
2021/09/30 05:55:49;;;;;;;63.30;38.10;;;;;;;13.58;100.00;99823.98;4117291;84;21122;-81
2021/09/30 06:14:22;;;;;;;61.98;38.42;;;;;;;13.62;100.00;99855.11;4160145;84;21041;-84
2021/09/30 06:20:21;;;;;;;61.95;38.58;;;;;;;13.59;100.00;99865.45;4160631;84;21033;-83
2021/09/30 06:26:22;;;;;;;66.30;39.60;;;;;;;13.57;100.00;99872.51;4126283;85;21618;-84
2021/09/30 06:32:25;;;;;;;56.90;36.58;;;;;;;13.51;100.00;99883.63;4155351;85;21081;-84
2021/09/30 06:38:28;;;;;;;56.23;36.60;;;;;;;13.44;100.00;99888.45;4160420;85;21064;-84
2021/09/30 06:44:30;;;;;;;53.75;34.20;;;;;;;13.38;100.00;99899.56;4154848;84;21731;-82
2021/09/30 06:50:50;;;;;;;54.58;31.87;;;;;;;13.32;100.00;99919.50;4169141;83;21600;-82
2021/09/30 06:57:03;;;;;;;52.08;31.93;;;;;;;13.24;100.00;99941.18;4179563;85;21089;-82
2021/09/30 07:03:26;;;;;;;49.05;32.65;;;;;;;13.14;100.00;99938.47;4123064;84;21039;-82
2021/09/30 07:09:47;;;;;;;54.08;32.85;;;;;;;13.06;100.00;99941.50;4121441;84;21078;-83
2021/09/30 07:15:49;;;;;;;47.98;31.68;;;;;;;12.96;100.00;99949.75;4122350;85;21046;-83
2021/09/30 07:21:51;;;;;;;48.85;30.85;;;;;;;12.90;100.00;99968.28;4125311;85;21074;-84
2021/09/30 07:27:52;;;;;;;43.42;28.10;;;;;;;12.93;100.00;99969.72;4126136;85;21557;-84
2021/09/30 07:33:53;;;;;;;50.38;28.57;;;;;;;12.98;100.00;99976.30;4125650;85;21114;-84
2021/09/30 07:39:54;;;;;;;42.05;26.07;;;;;;;12.98;100.00;99987.28;4121199;85;21094;-83
2021/09/30 07:45:57;;;;;;;36.50;23.47;;;;;;;12.99;100.00;99994.93;4127572;85;21057;-84
2021/09/30 07:51:58;;;;;;;36.90;23.92;;;;;;;12.97;100.00;99996.67;4123602;83;21090;-84
2021/09/30 07:58:00;;;;;;;36.20;22.25;;;;;;;12.92;100.00;100008.56;4129346;85;21594;-84
2021/09/30 08:04:03;;;;;;;28.95;19.02;;;;;;;12.89;100.00;100025.19;4133480;84;21078;-83
2021/09/30 08:10:07;;;;;;;30.52;16.73;;;;;;;12.82;100.00;100028.39;4155558;85;21097;-83
2021/09/30 08:16:08;;;;;;;30.27;18.40;;;;;;;12.76;100.00;100038.90;4161257;84;21070;-84
2021/09/30 08:22:11;;;;;;;31.23;19.40;;;;;;;12.78;100.00;100034.41;4151223;85;21062;-83
2021/09/30 08:28:13;;;;;;;30.35;20.77;;;;;;;12.77;100.00;100037.73;4155949;83;21073;-83
2021/09/30 08:34:14;;;;;;;37.17;22.13;;;;;;;12.80;100.00;100043.06;4142808;85;22041;-82
2021/09/30 08:40:16;;;;;;;30.08;18.35;;;;;;;12.85;100.00;100052.39;4151122;85;21055;-82
2021/09/30 08:46:19;;;;;;;29.60;18.62;;;;;;;12.85;100.00;100044.14;4143109;83;21141;-83
2021/09/30 08:52:21;;;;;;;39.48;19.77;;;;;;;12.86;100.00;100050.65;4140761;84;21068;-83
2021/09/30 08:58:22;;;;;;;30.40;18.27;;;;;;;12.87;100.00;100063.25;4161302;85;21760;-83
2021/09/30 09:04:24;;;;;;;23.45;15.48;;;;;;;12.87;100.00;100076.19;4120648;85;21115;-82
2021/09/30 09:10:31;;;;;;;32.35;17.02;;;;;;;12.85;100.00;100073.00;4156307;85;21568;-83
2021/09/30 09:16:33;;;;;;;25.48;15.32;;;;;;;12.80;100.00;100085.66;4132024;84;21089;-83
2021/09/30 09:22:37;;;;;;;29.80;14.95;;;;;;;12.74;100.00;100087.91;4145607;84;21638;-84
2021/09/30 09:29:15;;;;;;;21.60;13.32;;;;;;;12.75;100.00;100092.84;4148425;84;21086;-83
2021/09/30 09:35:16;;;;;;;20.37;11.83;;;;;;;12.71;100.00;100102.95;4136432;84;21602;-84
2021/09/30 09:41:38;;;;;;;19.57;12.45;;;;;;;12.63;100.00;100097.89;4145016;84;21072;-83
2021/09/30 09:47:43;;;;;;;18.35;10.53;;;;;;;12.63;100.00;100106.13;4140320;83;21435;-83
2021/09/30 09:53:46;;;;;;;19.98;10.05;;;;;;;12.63;100.00;100111.63;4158892;83;21124;-83
2021/09/30 09:59:51;;;;;;;20.62;11.88;;;;;;;12.62;100.00;100111.42;4125211;84;21685;-83
2021/09/30 10:05:59;;;;;;;20.20;11.78;;;;;;;12.60;100.00;100125.52;4108591;85;21409;-83
2021/09/30 10:12:01;;;;;;;18.67;11.33;;;;;;;12.64;100.00;100122.82;4156610;84;21103;-82
2021/09/30 10:18:08;;;;;;;20.45;11.03;;;;;;;12.71;100.00;100134.54;4137173;85;21068;-83
2021/09/30 10:24:16;;;;;;;;;;;;;;;12.70;100.00;100141.20;4151545;83;21042;-82
2021/09/30 10:30:44;;;;;;;;;;;;;;;12.73;100.00;100128.11;4157107;84;20171;-83
2021/09/30 10:36:46;;;;;;;14.47;8.63;;;;;;;12.71;100.00;100127.67;4142745;84;20422;-84
2021/09/30 10:42:56;;;;;;;17.37;9.28;;;;;;;12.59;100.00;100123.91;4140925;85;21570;-83
2021/09/30 10:48:58;;;;;;;18.32;8.10;;;;;;;12.66;100.00;100132.88;4140938;85;21071;-84
2021/09/30 10:55:24;;;;;;;14.58;8.58;;;;;;;12.72;100.00;100136.15;4151590;84;21512;-84
2021/09/30 11:01:25;;;;;;;16.25;7.85;;;;;;;12.70;100.00;100126.87;4153803;83;21130;-83
2021/09/30 11:07:27;;;;;;;17.37;8.08;;;;;;;12.72;100.00;100134.17;4141360;85;21086;-84
2021/09/30 11:13:50;;;;;;;18.90;7.58;;;;;;;12.68;100.00;100128.60;4137908;85;21094;-84
2021/09/30 11:19:52;;;;;;;10.25;5.75;;;;;;;12.65;100.00;100139.55;4156511;84;21614;-85
2021/09/30 11:26:11;;;;;;;16.73;6.60;;;;;;;12.62;100.00;100138.30;4160103;84;21553;-85
2021/09/30 11:32:19;;;;;;;15.28;6.87;;;;;;;12.56;100.00;100140.31;4147084;84;21112;-85
2021/09/30 11:38:20;;;;;;;17.77;7.33;;;;;;;12.45;100.00;100137.91;4178565;85;21387;-85
2021/09/30 11:44:22;;;;;;;11.53;7.03;;;;;;;12.36;100.00;100142.81;4157016;84;21092;-85
2021/09/30 11:50:28;;;;;;;16.35;8.50;;;;;;;12.32;100.00;100141.95;4150901;84;21130;-85
2021/09/30 11:56:38;;;;;;;10.48;5.87;;;;;;;12.26;100.00;100144.17;4144480;84;21048;-86
2021/09/30 12:02:59;;;;;;;10.90;6.47;;;;;;;12.18;100.00;100150.65;4157477;85;21155;-86
2021/09/30 12:09:01;;;;;;;12.05;6.08;;;;;;;12.07;100.00;100151.02;4162875;84;21023;-86
2021/09/30 12:15:05;;;;;;;12.05;6.58;;;;;;;11.99;100.00;100142.39;4138536;84;21066;-86
2021/09/30 12:21:06;;;;;;;9.93;6.33;;;;;;;11.99;100.00;100155.30;4146900;83;21529;-86
2021/09/30 12:27:08;;;;;;;10.75;5.95;;;;;;;11.99;99.97;100149.25;4143251;83;21026;-85
2021/09/30 12:33:10;;;;;;;13.70;6.25;;;;;;;11.97;99.67;100152.91;4144802;85;21105;-84
2021/09/30 12:39:12;;;;;;;11.10;6.03;;;;;;;12.03;99.70;100150.69;4166141;84;20981;-85
2021/09/30 12:45:16;;;;;;;10.10;5.87;;;;;;;12.07;99.82;100150.20;4172317;84;21038;-84
2021/09/30 12:51:23;;;;;;;13.18;5.33;;;;;;;12.07;99.65;100147.46;4156216;83;21053;-84
2021/09/30 12:57:35;;;;;;;7.53;4.65;;;;;;;12.04;99.37;100153.07;4151868;83;21666;-84
2021/09/30 13:03:36;;;;;;;9.63;5.72;;;;;;;12.10;99.66;100154.98;4160260;84;21093;-84
2021/09/30 13:09:40;;;;;;;11.83;5.92;;;;;;;12.18;99.59;100149.88;4166672;85;21073;-84
2021/09/30 13:15:46;;;;;;;10.00;6.85;;;;;;;12.13;99.23;100137.23;4124738;84;21596;-84
2021/09/30 13:22:00;;;;;;;10.58;6.92;;;;;;;12.08;98.92;100144.36;4148208;85;21429;-84
2021/09/30 13:28:03;;;;;;;11.65;6.92;;;;;;;12.10;98.81;100145.37;4151398;83;21530;-83
2021/09/30 13:34:04;;;;;;;11.45;6.45;;;;;;;12.07;98.84;100137.29;4161575;85;21100;-83
2021/09/30 13:40:09;;;;;;;9.80;6.50;;;;;;;12.14;99.11;100146.23;4179652;83;21595;-83
2021/09/30 13:46:10;;;;;;;9.20;5.87;;;;;;;12.24;99.36;100136.09;4149948;83;21070;-83
2021/09/30 13:52:13;;;;;;;9.80;5.58;;;;;;;12.32;99.38;100142.73;4160270;83;21042;-83
2021/09/30 13:58:14;;;;;;;14.43;6.58;;;;;;;12.35;98.68;100152.22;4155692;84;21076;-85
2021/09/30 14:04:16;;;;;;;11.05;6.87;;;;;;;12.33;98.26;100143.54;4156098;83;21116;-84
2021/09/30 14:10:20;;;;;;;15.58;6.85;;;;;;;12.32;98.34;100146.08;4146815;84;21100;-84
2021/09/30 14:16:24;;;;;;;19.60;7.25;;;;;;;12.30;98.20;100138.20;4141021;85;21524;-83
2021/09/30 14:22:26;;;;;;;13.43;7.53;;;;;;;12.25;97.67;100130.80;4150922;85;21113;-84
2021/09/30 14:28:29;;;;;;;10.93;7.10;;;;;;;12.27;97.95;100125.19;4146370;84;21705;-83
2021/09/30 14:34:30;;;;;;;14.05;6.37;;;;;;;12.32;98.13;100119.39;4157458;84;21514;-84
2021/09/30 14:40:33;;;;;;;11.20;6.22;;;;;;;12.31;97.65;100118.38;4156868;85;21016;-83
2021/09/30 14:46:36;;;;;;;14.40;5.97;;;;;;;12.35;98.19;100112.41;4156748;85;21061;-83
2021/09/30 14:52:38;;;;;;;9.03;5.50;;;;;;;12.34;97.93;100112.20;4170208;85;21585;-83
2021/09/30 14:58:40;;;;;;;11.48;5.70;;;;;;;12.40;98.22;100108.78;4142230;84;21546;-84
2021/09/30 15:04:41;;;;;;;13.32;6.45;;;;;;;12.41;98.24;100104.91;4154358;84;21498;-83
2021/09/30 15:10:42;;;;;;;14.58;6.00;;;;;;;12.41;98.55;100115.08;4145290;85;21042;-83
2021/09/30 15:16:53;;;;;;;13.28;5.62;;;;;;;12.40;98.61;100115.66;4151918;84;21076;-83
2021/09/30 15:22:49;;;;;;;13.20;6.05;;;;;;;12.38;98.66;100114.43;4150306;85;21096;-84
2021/09/30 15:28:53;;;;;;;10.82;5.47;;;;;;;12.40;98.61;100112.91;4154666;85;21057;-83
2021/09/30 15:34:54;;;;;;;8.63;6.33;;;;;;;12.34;98.37;100126.70;4160437;84;21086;-83
2021/09/30 15:40:57;;;;;;;13.00;6.72;;;;;;;12.30;98.52;100128.59;4141270;84;21074;-83
2021/09/30 15:46:58;;;;;;;15.30;8.38;;;;;;;12.24;98.30;100127.28;4136206;85;21566;-83
2021/09/30 15:53:00;;;;;;;17.25;7.75;;;;;;;12.11;98.16;100127.73;4146734;84;21058;-83
2021/09/30 15:59:02;;;;;;;11.53;7.37;;;;;;;12.06;97.98;100126.64;4158056;85;21103;-84
2021/09/30 16:05:04;;;;;;;17.25;7.28;;;;;;;12.02;97.82;100130.70;4146597;84;21081;-84
2021/09/30 16:11:05;;;;;;;13.98;7.42;;;;;;;12.00;97.64;100139.05;4160096;85;22292;-84
2021/09/30 16:17:06;;;;;;;16.73;7.95;;;;;;;11.97;97.48;100136.45;4145529;85;21089;-83
2021/09/30 16:23:08;;;;;;;11.35;7.35;;;;;;;11.94;97.44;100136.36;4164698;85;21085;-84
2021/09/30 16:29:09;;;;;;;12.13;7.40;;;;;;;11.91;97.24;100142.00;4155406;84;21060;-83
2021/09/30 16:35:12;;;;;;;14.05;6.58;;;;;;;11.89;97.46;100148.97;4139047;84;21089;-84
2021/09/30 16:41:13;;;;;;;12.47;7.67;;;;;;;11.82;97.95;100159.80;4147753;84;21101;-83
2021/09/30 16:47:18;;;;;;;15.25;7.53;;;;;;;11.78;97.92;100167.13;4148571;84;21037;-83
2021/09/30 16:53:21;;;;;;;18.25;7.95;;;;;;;11.67;98.00;100166.86;4150004;85;21090;-83
2021/09/30 16:59:21;;;;;;;15.00;8.38;;;;;;;11.68;98.20;100175.30;4152603;85;21065;-83
2021/09/30 17:05:24;;;;;;;18.12;9.10;;;;;;;11.66;98.17;100168.03;4134902;83;21070;-83
2021/09/30 17:11:26;;;;;;;22.67;9.45;;;;;;;11.56;97.85;100174.00;4119195;84;21133;-83
2021/09/30 17:17:28;;;;;;;13.88;9.05;;;;;;;11.46;98.34;100175.91;4125164;85;21610;-83
2021/09/30 17:23:30;;;;;;;19.85;10.48;;;;;;;11.49;98.85;100180.69;4121858;85;21075;-84
2021/09/30 17:29:31;;;;;;;17.90;8.65;;;;;;;11.44;98.51;100174.08;4114517;84;21114;-84
2021/09/30 17:35:34;;;;;;;20.32;11.88;;;;;;;11.45;98.47;100183.11;4132226;83;22254;-84
2021/09/30 17:41:35;;;;;;;16.27;11.45;;;;;;;11.42;98.75;100179.11;4120580;85;21110;-84
2021/09/30 17:47:36;;;;;;;21.05;12.37;;;;;;;11.37;98.89;100180.73;4121635;85;21503;-84
2021/09/30 17:53:38;;;;;;;26.87;14.10;;;;;;;11.28;98.71;100182.84;4116989;85;21639;-83
2021/09/30 17:59:42;;;;;;;27.17;14.85;;;;;;;11.26;99.07;100191.21;4082779;85;20989;-83
2021/09/30 18:05:43;;;;;;;26.12;16.23;;;;;;;11.24;99.11;100184.70;4116548;85;21035;-84
2021/09/30 18:11:45;;;;;;;67.90;28.95;;;;;;;11.18;98.77;100188.86;4106391;85;21055;-83
2021/09/30 18:25:10;;;;;;;48.02;24.52;;;;;;;11.08;99.36;100187.41;3999422;81;10000783;-83
2021/09/30 18:30:35;;;;;;;41.92;21.80;;;;;;;11.13;99.62;100190.47;4165507;83;21043;-83
2021/09/30 18:36:38;;;;;;;39.40;21.57;;;;;;;11.06;99.17;100190.27;4165110;82;21130;-83
2021/09/30 18:42:41;;;;;;;34.23;18.87;;;;;;;11.03;99.44;100201.92;4157724;83;21142;-83
2021/09/30 18:48:42;;;;;;;32.30;20.57;;;;;;;11.04;99.77;100204.31;4163116;83;21016;-83
2021/09/30 18:54:44;;;;;;;31.73;17.23;;;;;;;11.07;100.00;100217.31;4233648;81;21041;-84
2021/09/30 19:00:45;;;;;;;41.60;19.82;;;;;;;11.10;99.70;100213.87;4289293;81;21053;-83
2021/09/30 19:06:47;;;;;;;36.53;19.45;;;;;;;10.96;99.71;100212.70;4289068;81;20961;-84
2021/09/30 19:12:48;;;;;;;31.17;17.48;;;;;;;11.03;100.00;100221.91;4385052;79;20983;-84
2021/09/30 19:18:50;;;;;;;32.88;19.62;;;;;;;11.02;100.00;100222.26;4384331;79;21038;-82
2021/09/30 19:24:53;;;;;;;42.58;25.25;;;;;;;10.99;100.00;100209.26;4403446;78;21028;-83
2021/09/30 19:30:54;;;;;;;54.88;33.18;;;;;;;10.80;99.72;100212.63;4422092;78;21621;-83
2021/09/30 19:36:56;;;;;;;45.12;26.57;;;;;;;10.65;100.00;100213.91;4419871;78;21014;-83
2021/09/30 19:42:57;;;;;;;36.75;22.75;;;;;;;10.62;100.00;100203.08;4419925;78;21023;-83
2021/09/30 19:49:00;;;;;;;38.05;21.33;;;;;;;10.58;100.00;100195.91;4421714;78;20995;-83
2021/09/30 19:55:02;;;;;;;32.48;18.07;;;;;;;10.61;100.00;100196.58;4421076;78;21581;-83
2021/09/30 20:01:05;;;;;;;30.02;17.48;;;;;;;10.65;100.00;100198.84;4419543;78;21031;-83
2021/09/30 20:07:07;;;;;;;34.20;18.40;;;;;;;10.52;100.00;100205.50;4417745;78;21038;-83
2021/09/30 20:13:08;;;;;;;34.25;18.52;;;;;;;10.46;100.00;100212.36;4341598;80;21018;-83
2021/09/30 20:19:09;;;;;;;38.80;19.80;;;;;;;10.51;100.00;100226.60;4334646;80;21495;-84
2021/09/30 20:25:12;;;;;;;34.75;20.70;;;;;;;10.54;100.00;100241.56;4198340;83;21107;-84
2021/09/30 20:31:14;;;;;;;44.48;26.27;;;;;;;10.53;100.00;100248.16;4197772;83;21037;-83
2021/09/30 20:37:16;;;;;;;39.55;22.60;;;;;;;10.44;100.00;100244.19;4195616;83;21092;-84
2021/09/30 20:43:20;;;;;;;35.83;22.27;;;;;;;10.28;99.76;100243.84;4196066;83;21063;-84
2021/09/30 20:49:22;;;;;;;40.38;23.92;;;;;;;10.07;99.42;100249.98;4195652;83;21071;-83
2021/09/30 20:55:23;;;;;;;37.50;22.37;;;;;;;9.72;99.94;100250.15;4196803;83;21028;-83
2021/09/30 21:01:25;;;;;;;36.58;19.50;;;;;;;9.52;99.91;100242.26;4194726;83;21143;-83
2021/09/30 21:07:26;;;;;;;32.83;20.05;;;;;;;9.35;99.62;100251.97;4195983;83;21515;-83
2021/09/30 21:13:27;;;;;;;36.73;20.80;;;;;;;9.21;99.80;100246.00;4343202;80;21522;-83
2021/09/30 21:19:29;;;;;;;33.28;19.37;;;;;;;9.08;99.75;100241.64;4343619;80;21050;-83
2021/09/30 21:25:30;;;;;;;60.63;29.87;;;;;;;9.00;99.74;100235.12;4418360;78;21519;-84
2021/09/30 21:31:33;;;;;;;40.30;21.37;;;;;;;8.89;99.56;100231.20;4416654;78;21027;-83
2021/09/30 21:37:35;;;;;;;90.85;37.83;;;;;;;8.71;99.48;100233.81;4405290;78;22264;-83
2021/09/30 21:43:38;;;;;;;70.97;34.05;;;;;;;8.62;99.64;100251.38;4416106;78;21004;-83
2021/09/30 21:49:40;;;;;;;61.30;30.80;;;;;;;8.36;99.51;100244.74;4419637;78;22016;-83
2021/09/30 21:55:41;;;;;;;66.00;30.45;;;;;;;8.33;100.00;100242.64;4340833;80;21038;-83
2021/09/30 22:01:42;;;;;;;37.33;22.02;;;;;;;8.36;99.92;100246.11;4343155;80;20998;-83
2021/09/30 22:07:44;;;;;;;45.52;23.83;;;;;;;8.23;99.72;100250.41;4337550;80;21050;-83
2021/09/30 22:13:46;;;;;;;45.28;23.67;;;;;;;8.08;100.00;100243.55;4296971;81;21525;-85
2021/09/30 22:19:47;;;;;;;43.38;21.40;;;;;;;8.04;99.85;100241.25;4296665;81;21359;-83
2021/09/30 22:25:48;;;;;;;37.65;20.48;;;;;;;8.03;100.00;100254.08;4312408;81;21046;-83
2021/09/30 22:31:49;;;;;;;36.98;20.72;;;;;;;7.89;99.34;100258.17;4312351;81;21023;-83
2021/09/30 22:37:51;;;;;;;36.42;20.55;;;;;;;7.67;99.39;100264.63;4307904;81;21088;-83
2021/09/30 22:43:53;;;;;;;46.70;22.87;;;;;;;7.66;100.00;100270.41;4309140;81;20998;-83
2021/09/30 22:49:54;;;;;;;37.00;21.02;;;;;;;7.61;99.84;100271.39;4308189;81;21788;-83
2021/09/30 22:55:55;;;;;;;40.00;22.58;;;;;;;7.55;100.00;100264.52;4309413;81;21054;-84
2021/09/30 23:01:57;;;;;;;40.10;19.92;;;;;;;7.50;99.54;100257.87;4311618;81;21023;-84
2021/09/30 23:07:59;;;;;;;36.17;19.35;;;;;;;7.45;99.41;100253.98;4311993;81;21046;-84
2021/09/30 23:14:00;;;;;;;32.67;18.48;;;;;;;7.43;99.49;100253.49;4310278;81;21055;-83
2021/09/30 23:20:05;;;;;;;32.58;18.50;;;;;;;7.24;98.96;100256.31;4307691;81;20996;-83
2021/09/30 23:26:06;;;;;;;32.33;18.37;;;;;;;7.10;99.76;100259.22;4217708;83;21035;-83
2021/09/30 23:32:08;;;;;;;30.95;16.73;;;;;;;6.99;99.12;100259.30;4217570;83;21053;-83
2021/09/30 23:38:10;;;;;;;31.33;18.07;;;;;;;6.85;98.81;100268.19;4217053;83;21094;-83
2021/09/30 23:44:11;;;;;;;27.02;16.80;;;;;;;6.62;99.49;100267.28;4216001;83;21039;-82
2021/09/30 23:50:12;;;;;;;39.27;20.50;;;;;;;6.78;100.00;100265.13;4215970;83;21621;-84
2021/09/30 23:56:14;;;;;;;46.70;21.25;;;;;;;6.67;99.03;100269.27;4216691;83;21022;-82
